Terminal Aerodrome Forecast
Issued by NWS

Home | Current Version | Previous Version | Text Only | Print | Product List | Glossary On
Versions: 1 2 3 4 5 6 7 8 9 10 11 12 13 14 15
000
FTUS46 KSEW 212337
TAFBFI
TAF
KBFI 212337Z 2200/2224 VRB03KT P6SM SCT080 BKN120
     FM220200 32004KT P6SM SCT080 BKN100
     FM220800 15004KT P6SM BKN050 OVC080
     FM221400 17005KT P6SM SCT030 BKN040 OVC060
     FM222100 25006KT P6SM SCT045 BKN060=

USA.gov is the U.S. government's official web portal to all federal, state and local government web resources and services.